sensor_id;sensor_type;location;lat;lon;timestamp;P1;durP1;ratioP1;P2;durP2;ratioP2
6033;SDS011;3045;43.226;27.858;2024-01-10T00:00:25;6.67;;;4.97;;
6033;SDS011;3045;43.226;27.858;2024-01-10T00:02:52;5.87;;;5.03;;
6033;SDS011;3045;43.226;27.858;2024-01-10T00:05:20;5.13;;;4.70;;
6033;SDS011;3045;43.226;27.858;2024-01-10T00:07:47;5.03;;;4.53;;
6033;SDS011;3045;43.226;27.858;2024-01-10T00:10:16;5.67;;;5.27;;
6033;SDS011;3045;43.226;27.858;2024-01-10T00:12:43;5.60;;;5.03;;
6033;SDS011;3045;43.226;27.858;2024-01-10T00:15:10;7.53;;;5.37;;
6033;SDS011;3045;43.226;27.858;2024-01-10T00:17:38;5.23;;;4.83;;
6033;SDS011;3045;43.226;27.858;2024-01-10T00:20:07;5.23;;;4.93;;
6033;SDS011;3045;43.226;27.858;2024-01-10T00:22:34;4.93;;;4.63;;
6033;SDS011;3045;43.226;27.858;2024-01-10T00:25:01;5.33;;;5.03;;
6033;SDS011;3045;43.226;27.858;2024-01-10T00:27:31;5.63;;;5.33;;
6033;SDS011;3045;43.226;27.858;2024-01-10T00:29:58;5.87;;;5.47;;
6033;SDS011;3045;43.226;27.858;2024-01-10T00:32:25;9.17;;;5.80;;
6033;SDS011;3045;43.226;27.858;2024-01-10T00:34:52;5.30;;;4.90;;
6033;SDS011;3045;43.226;27.858;2024-01-10T00:37:19;5.03;;;4.73;;
6033;SDS011;3045;43.226;27.858;2024-01-10T00:39:46;5.67;;;5.17;;
6033;SDS011;3045;43.226;27.858;2024-01-10T00:42:13;6.87;;;5.30;;
6033;SDS011;3045;43.226;27.858;2024-01-10T00:44:41;5.10;;;4.80;;
6033;SDS011;3045;43.226;27.858;2024-01-10T00:47:09;5.63;;;5.23;;
6033;SDS011;3045;43.226;27.858;2024-01-10T00:49:37;7.13;;;5.30;;
6033;SDS011;3045;43.226;27.858;2024-01-10T00:52:04;5.53;;;5.03;;
6033;SDS011;3045;43.226;27.858;2024-01-10T00:54:31;4.73;;;4.43;;
6033;SDS011;3045;43.226;27.858;2024-01-10T00:56:58;5.83;;;5.43;;
6033;SDS011;3045;43.226;27.858;2024-01-10T00:59:25;7.00;;;5.23;;
6033;SDS011;3045;43.226;27.858;2024-01-10T01:01:54;5.07;;;4.70;;
6033;SDS011;3045;43.226;27.858;2024-01-10T01:04:21;4.80;;;4.50;;
6033;SDS011;3045;43.226;27.858;2024-01-10T01:06:48;5.53;;;5.23;;
6033;SDS011;3045;43.226;27.858;2024-01-10T01:09:15;8.07;;;5.50;;
6033;SDS011;3045;43.226;27.858;2024-01-10T01:11:42;5.87;;;5.40;;
6033;SDS011;3045;43.226;27.858;2024-01-10T01:14:09;5.97;;;5.47;;
6033;SDS011;3045;43.226;27.858;2024-01-10T01:16:36;5.33;;;4.93;;
6033;SDS011;3045;43.226;27.858;2024-01-10T01:19:04;5.73;;;5.23;;
6033;SDS011;3045;43.226;27.858;2024-01-10T01:21:31;6.23;;;5.63;;
6033;SDS011;3045;43.226;27.858;2024-01-10T01:23:58;5.57;;;5.17;;
6033;SDS011;3045;43.226;27.858;2024-01-10T01:26:25;5.47;;;5.07;;
6033;SDS011;3045;43.226;27.858;2024-01-10T01:28:52;5.70;;;5.20;;
6033;SDS011;3045;43.226;27.858;2024-01-10T01:31:19;5.47;;;5.07;;
6033;SDS011;3045;43.226;27.858;2024-01-10T01:33:47;5.60;;;5.07;;
6033;SDS011;3045;43.226;27.858;2024-01-10T01:36:15;5.93;;;4.90;;
6033;SDS011;3045;43.226;27.858;2024-01-10T01:38:42;5.33;;;5.03;;
6033;SDS011;3045;43.226;27.858;2024-01-10T01:41:09;5.53;;;5.03;;
6033;SDS011;3045;43.226;27.858;2024-01-10T01:43:36;6.17;;;5.67;;
6033;SDS011;3045;43.226;27.858;2024-01-10T01:46:03;6.13;;;5.63;;
6033;SDS011;3045;43.226;27.858;2024-01-10T01:48:31;6.70;;;6.10;;
6033;SDS011;3045;43.226;27.858;2024-01-10T01:50:59;5.93;;;5.43;;
6033;SDS011;3045;43.226;27.858;2024-01-10T01:53:31;6.73;;;6.03;;
6033;SDS011;3045;43.226;27.858;2024-01-10T01:56:01;7.00;;;6.40;;
6033;SDS011;3045;43.226;27.858;2024-01-10T01:58:31;6.53;;;5.93;;
6033;SDS011;3045;43.226;27.858;2024-01-10T02:00:58;6.37;;;5.87;;
6033;SDS011;3045;43.226;27.858;2024-01-10T02:03:27;6.80;;;6.10;;
6033;SDS011;3045;43.226;27.858;2024-01-10T02:05:55;6.20;;;5.70;;
6033;SDS011;3045;43.226;27.858;2024-01-10T02:08:23;6.27;;;5.77;;
6033;SDS011;3045;43.226;27.858;2024-01-10T02:10:52;6.03;;;5.53;;
6033;SDS011;3045;43.226;27.858;2024-01-10T02:13:19;6.07;;;5.73;;
6033;SDS011;3045;43.226;27.858;2024-01-10T02:15:46;6.53;;;5.77;;
6033;SDS011;3045;43.226;27.858;2024-01-10T02:18:13;5.67;;;5.27;;
6033;SDS011;3045;43.226;27.858;2024-01-10T02:20:42;5.63;;;5.23;;
6033;SDS011;3045;43.226;27.858;2024-01-10T02:23:09;6.40;;;5.87;;
6033;SDS011;3045;43.226;27.858;2024-01-10T02:25:38;5.60;;;5.20;;
6033;SDS011;3045;43.226;27.858;2024-01-10T02:28:06;7.00;;;6.07;;
6033;SDS011;3045;43.226;27.858;2024-01-10T02:30:34;6.60;;;6.10;;
6033;SDS011;3045;43.226;27.858;2024-01-10T02:33:01;6.37;;;5.87;;
6033;SDS011;3045;43.226;27.858;2024-01-10T02:35:28;5.83;;;5.43;;
6033;SDS011;3045;43.226;27.858;2024-01-10T02:37:58;6.37;;;5.87;;
6033;SDS011;3045;43.226;27.858;2024-01-10T02:40:25;7.60;;;5.33;;
6033;SDS011;3045;43.226;27.858;2024-01-10T02:42:54;5.67;;;5.20;;
6033;SDS011;3045;43.226;27.858;2024-01-10T02:45:21;6.80;;;6.20;;
6033;SDS011;3045;43.226;27.858;2024-01-10T02:47:48;7.13;;;5.47;;
6033;SDS011;3045;43.226;27.858;2024-01-10T02:50:15;5.73;;;5.33;;
6033;SDS011;3045;43.226;27.858;2024-01-10T02:52:42;6.00;;;5.40;;
6033;SDS011;3045;43.226;27.858;2024-01-10T02:55:09;6.50;;;5.67;;
6033;SDS011;3045;43.226;27.858;2024-01-10T02:57:36;6.00;;;5.50;;
6033;SDS011;3045;43.226;27.858;2024-01-10T03:00:05;6.60;;;6.00;;
6033;SDS011;3045;43.226;27.858;2024-01-10T03:02:34;8.23;;;5.27;;
6033;SDS011;3045;43.226;27.858;2024-01-10T03:05:01;6.73;;;6.00;;
6033;SDS011;3045;43.226;27.858;2024-01-10T03:07:28;5.90;;;5.50;;
6033;SDS011;3045;43.226;27.858;2024-01-10T03:09:55;7.00;;;6.27;;
6033;SDS011;3045;43.226;27.858;2024-01-10T03:12:22;5.90;;;5.50;;
6033;SDS011;3045;43.226;27.858;2024-01-10T03:14:49;5.83;;;5.50;;
6033;SDS011;3045;43.226;27.858;2024-01-10T03:17:18;6.70;;;5.73;;
6033;SDS011;3045;43.226;27.858;2024-01-10T03:19:45;6.30;;;5.90;;
6033;SDS011;3045;43.226;27.858;2024-01-10T03:22:12;6.43;;;6.03;;
6033;SDS011;3045;43.226;27.858;2024-01-10T03:24:39;5.90;;;5.50;;
6033;SDS011;3045;43.226;27.858;2024-01-10T03:27:07;9.70;;;6.97;;
6033;SDS011;3045;43.226;27.858;2024-01-10T03:29:34;6.90;;;6.23;;
6033;SDS011;3045;43.226;27.858;2024-01-10T03:32:02;6.50;;;5.97;;
6033;SDS011;3045;43.226;27.858;2024-01-10T03:34:30;6.93;;;6.43;;
6033;SDS011;3045;43.226;27.858;2024-01-10T03:36:57;8.27;;;5.87;;
6033;SDS011;3045;43.226;27.858;2024-01-10T03:39:24;6.33;;;5.73;;
6033;SDS011;3045;43.226;27.858;2024-01-10T03:41:51;6.33;;;5.77;;
6033;SDS011;3045;43.226;27.858;2024-01-10T03:44:18;5.80;;;5.27;;
6033;SDS011;3045;43.226;27.858;2024-01-10T03:46:45;7.23;;;5.33;;
6033;SDS011;3045;43.226;27.858;2024-01-10T03:49:12;6.23;;;4.60;;
6033;SDS011;3045;43.226;27.858;2024-01-10T03:51:41;6.13;;;5.73;;
6033;SDS011;3045;43.226;27.858;2024-01-10T03:54:08;13.40;;;5.80;;
6033;SDS011;3045;43.226;27.858;2024-01-10T03:56:35;5.87;;;5.43;;
6033;SDS011;3045;43.226;27.858;2024-01-10T03:59:02;6.67;;;5.83;;
6033;SDS011;3045;43.226;27.858;2024-01-10T04:01:29;6.10;;;5.67;;
6033;SDS011;3045;43.226;27.858;2024-01-10T04:03:56;7.47;;;5.13;;
6033;SDS011;3045;43.226;27.858;2024-01-10T04:06:23;6.53;;;5.83;;
6033;SDS011;3045;43.226;27.858;2024-01-10T04:08:53;6.27;;;5.37;;
6033;SDS011;3045;43.226;27.858;2024-01-10T04:11:20;6.03;;;5.60;;
6033;SDS011;3045;43.226;27.858;2024-01-10T04:13:47;6.47;;;6.07;;
6033;SDS011;3045;43.226;27.858;2024-01-10T04:16:14;6.37;;;5.83;;
6033;SDS011;3045;43.226;27.858;2024-01-10T04:18:41;7.60;;;5.47;;
6033;SDS011;3045;43.226;27.858;2024-01-10T04:21:08;6.63;;;5.93;;
6033;SDS011;3045;43.226;27.858;2024-01-10T04:23:35;5.80;;;5.40;;
6033;SDS011;3045;43.226;27.858;2024-01-10T04:26:03;5.90;;;5.50;;
6033;SDS011;3045;43.226;27.858;2024-01-10T04:28:30;9.20;;;5.83;;
6033;SDS011;3045;43.226;27.858;2024-01-10T04:30:57;6.13;;;5.67;;
6033;SDS011;3045;43.226;27.858;2024-01-10T04:33:24;5.87;;;5.37;;
6033;SDS011;3045;43.226;27.858;2024-01-10T04:35:52;6.10;;;5.50;;
6033;SDS011;3045;43.226;27.858;2024-01-10T04:38:19;5.07;;;4.77;;
6033;SDS011;3045;43.226;27.858;2024-01-10T04:40:46;5.87;;;5.43;;
6033;SDS011;3045;43.226;27.858;2024-01-10T04:43:14;5.47;;;5.07;;
6033;SDS011;3045;43.226;27.858;2024-01-10T04:45:41;6.70;;;6.10;;
6033;SDS011;3045;43.226;27.858;2024-01-10T04:48:08;5.67;;;5.17;;
6033;SDS011;3045;43.226;27.858;2024-01-10T04:50:35;4.80;;;4.50;;
6033;SDS011;3045;43.226;27.858;2024-01-10T04:53:03;5.67;;;5.17;;
6033;SDS011;3045;43.226;27.858;2024-01-10T04:55:30;5.37;;;5.03;;
6033;SDS011;3045;43.226;27.858;2024-01-10T04:57:57;5.57;;;5.07;;
6033;SDS011;3045;43.226;27.858;2024-01-10T05:00:26;9.83;;;5.30;;
6033;SDS011;3045;43.226;27.858;2024-01-10T05:02:54;5.00;;;4.70;;
6033;SDS011;3045;43.226;27.858;2024-01-10T05:05:21;4.87;;;4.50;;
6033;SDS011;3045;43.226;27.858;2024-01-10T05:07:49;5.73;;;4.20;;
6033;SDS011;3045;43.226;27.858;2024-01-10T05:10:16;4.57;;;4.27;;
6033;SDS011;3045;43.226;27.858;2024-01-10T05:12:43;5.90;;;5.40;;
6033;SDS011;3045;43.226;27.858;2024-01-10T05:15:10;11.47;;;4.97;;
6033;SDS011;3045;43.226;27.858;2024-01-10T05:17:39;9.03;;;5.50;;
6033;SDS011;3045;43.226;27.858;2024-01-10T05:20:06;4.87;;;4.57;;
6033;SDS011;3045;43.226;27.858;2024-01-10T05:22:34;7.93;;;5.17;;
6033;SDS011;3045;43.226;27.858;2024-01-10T05:25:02;5.47;;;4.63;;
6033;SDS011;3045;43.226;27.858;2024-01-10T05:27:30;5.33;;;4.27;;
6033;SDS011;3045;43.226;27.858;2024-01-10T05:29:57;5.83;;;4.10;;
6033;SDS011;3045;43.226;27.858;2024-01-10T05:32:25;4.50;;;4.20;;
6033;SDS011;3045;43.226;27.858;2024-01-10T05:34:54;6.43;;;4.10;;
6033;SDS011;3045;43.226;27.858;2024-01-10T05:37:21;4.33;;;4.07;;
6033;SDS011;3045;43.226;27.858;2024-01-10T05:39:48;3.97;;;3.67;;
6033;SDS011;3045;43.226;27.858;2024-01-10T05:42:15;4.00;;;3.70;;
6033;SDS011;3045;43.226;27.858;2024-01-10T05:44:43;6.60;;;3.40;;
6033;SDS011;3045;43.226;27.858;2024-01-10T05:47:10;6.20;;;3.53;;
6033;SDS011;3045;43.226;27.858;2024-01-10T05:49:37;3.77;;;3.07;;
6033;SDS011;3045;43.226;27.858;2024-01-10T05:52:06;11.73;;;4.50;;
6033;SDS011;3045;43.226;27.858;2024-01-10T05:54:33;4.97;;;3.17;;
6033;SDS011;3045;43.226;27.858;2024-01-10T05:57:00;2.73;;;2.53;;
6033;SDS011;3045;43.226;27.858;2024-01-10T05:59:27;5.23;;;3.37;;
6033;SDS011;3045;43.226;27.858;2024-01-10T06:01:56;7.60;;;3.83;;
6033;SDS011;3045;43.226;27.858;2024-01-10T06:04:24;2.83;;;2.63;;
6033;SDS011;3045;43.226;27.858;2024-01-10T06:06:53;3.37;;;2.40;;
6033;SDS011;3045;43.226;27.858;2024-01-10T06:09:21;2.70;;;2.23;;
6033;SDS011;3045;43.226;27.858;2024-01-10T06:11:50;3.10;;;2.90;;
6033;SDS011;3045;43.226;27.858;2024-01-10T06:14:17;2.83;;;2.23;;
6033;SDS011;3045;43.226;27.858;2024-01-10T06:16:45;3.23;;;3.03;;
6033;SDS011;3045;43.226;27.858;2024-01-10T06:19:12;6.90;;;2.63;;
6033;SDS011;3045;43.226;27.858;2024-01-10T06:21:39;2.97;;;2.77;;
6033;SDS011;3045;43.226;27.858;2024-01-10T06:24:06;12.63;;;3.67;;
6033;SDS011;3045;43.226;27.858;2024-01-10T06:26:34;9.73;;;2.70;;
6033;SDS011;3045;43.226;27.858;2024-01-10T06:29:02;5.07;;;2.67;;
6033;SDS011;3045;43.226;27.858;2024-01-10T06:31:29;3.37;;;2.10;;
6033;SDS011;3045;43.226;27.858;2024-01-10T06:33:56;4.03;;;2.73;;
6033;SDS011;3045;43.226;27.858;2024-01-10T06:36:23;4.83;;;3.03;;
6033;SDS011;3045;43.226;27.858;2024-01-10T06:38:50;3.80;;;3.57;;
6033;SDS011;3045;43.226;27.858;2024-01-10T06:41:17;5.17;;;4.77;;
6033;SDS011;3045;43.226;27.858;2024-01-10T06:43:50;2.87;;;2.67;;
6033;SDS011;3045;43.226;27.858;2024-01-10T06:46:17;3.07;;;2.87;;
6033;SDS011;3045;43.226;27.858;2024-01-10T06:48:45;3.63;;;2.63;;
6033;SDS011;3045;43.226;27.858;2024-01-10T06:51:13;5.80;;;3.00;;
6033;SDS011;3045;43.226;27.858;2024-01-10T06:53:40;7.50;;;3.83;;
6033;SDS011;3045;43.226;27.858;2024-01-10T06:56:07;5.57;;;3.00;;
6033;SDS011;3045;43.226;27.858;2024-01-10T06:58:36;8.63;;;2.90;;
6033;SDS011;3045;43.226;27.858;2024-01-10T07:01:10;10.43;;;3.53;;
6033;SDS011;3045;43.226;27.858;2024-01-10T07:03:38;8.17;;;3.80;;
6033;SDS011;3045;43.226;27.858;2024-01-10T07:06:06;5.30;;;3.60;;
6033;SDS011;3045;43.226;27.858;2024-01-10T07:08:33;7.67;;;3.60;;
6033;SDS011;3045;43.226;27.858;2024-01-10T07:11:00;4.90;;;3.47;;
6033;SDS011;3045;43.226;27.858;2024-01-10T07:13:27;4.60;;;4.30;;
6033;SDS011;3045;43.226;27.858;2024-01-10T07:15:54;4.37;;;4.00;;
6033;SDS011;3045;43.226;27.858;2024-01-10T07:18:23;4.80;;;4.40;;
6033;SDS011;3045;43.226;27.858;2024-01-10T07:20:50;7.37;;;4.63;;
6033;SDS011;3045;43.226;27.858;2024-01-10T07:23:18;4.20;;;4.00;;
6033;SDS011;3045;43.226;27.858;2024-01-10T07:25:45;7.33;;;4.60;;
6033;SDS011;3045;43.226;27.858;2024-01-10T07:28:12;8.40;;;5.03;;
6033;SDS011;3045;43.226;27.858;2024-01-10T07:30:39;5.07;;;4.10;;
6033;SDS011;3045;43.226;27.858;2024-01-10T07:33:06;8.70;;;4.80;;
6033;SDS011;3045;43.226;27.858;2024-01-10T07:35:35;5.37;;;4.97;;
6033;SDS011;3045;43.226;27.858;2024-01-10T07:38:03;5.47;;;5.07;;
6033;SDS011;3045;43.226;27.858;2024-01-10T07:40:32;6.17;;;5.70;;
6033;SDS011;3045;43.226;27.858;2024-01-10T07:42:59;5.73;;;5.43;;
6033;SDS011;3045;43.226;27.858;2024-01-10T07:45:26;4.77;;;4.47;;
6033;SDS011;3045;43.226;27.858;2024-01-10T07:47:54;4.40;;;4.20;;
6033;SDS011;3045;43.226;27.858;2024-01-10T07:50:21;5.73;;;4.27;;
6033;SDS011;3045;43.226;27.858;2024-01-10T07:52:53;4.30;;;3.90;;
6033;SDS011;3045;43.226;27.858;2024-01-10T07:55:23;3.80;;;3.50;;
6033;SDS011;3045;43.226;27.858;2024-01-10T07:57:50;3.30;;;3.10;;
6033;SDS011;3045;43.226;27.858;2024-01-10T08:00:18;4.57;;;3.37;;
6033;SDS011;3045;43.226;27.858;2024-01-10T08:02:45;3.63;;;3.43;;
6033;SDS011;3045;43.226;27.858;2024-01-10T08:05:13;4.27;;;3.73;;
6033;SDS011;3045;43.226;27.858;2024-01-10T08:07:41;3.97;;;3.67;;
6033;SDS011;3045;43.226;27.858;2024-01-10T08:10:10;6.27;;;3.60;;
6033;SDS011;3045;43.226;27.858;2024-01-10T08:12:38;3.47;;;3.17;;
6033;SDS011;3045;43.226;27.858;2024-01-10T08:15:06;4.00;;;3.63;;
6033;SDS011;3045;43.226;27.858;2024-01-10T08:17:35;4.30;;;4.00;;
6033;SDS011;3045;43.226;27.858;2024-01-10T08:20:03;5.53;;;5.03;;
6033;SDS011;3045;43.226;27.858;2024-01-10T08:22:31;4.40;;;4.10;;
6033;SDS011;3045;43.226;27.858;2024-01-10T08:24:58;6.83;;;4.97;;
6033;SDS011;3045;43.226;27.858;2024-01-10T08:27:27;9.40;;;6.07;;
6033;SDS011;3045;43.226;27.858;2024-01-10T08:29:55;6.83;;;6.17;;
6033;SDS011;3045;43.226;27.858;2024-01-10T08:32:22;6.13;;;4.30;;
6033;SDS011;3045;43.226;27.858;2024-01-10T08:34:49;6.07;;;5.00;;
6033;SDS011;3045;43.226;27.858;2024-01-10T08:37:16;5.00;;;4.53;;
6033;SDS011;3045;43.226;27.858;2024-01-10T08:39:43;5.50;;;5.20;;
6033;SDS011;3045;43.226;27.858;2024-01-10T08:42:10;4.37;;;4.07;;
6033;SDS011;3045;43.226;27.858;2024-01-10T08:44:39;4.27;;;3.97;;
6033;SDS011;3045;43.226;27.858;2024-01-10T08:47:06;4.67;;;4.20;;
6033;SDS011;3045;43.226;27.858;2024-01-10T08:49:33;3.37;;;3.17;;
6033;SDS011;3045;43.226;27.858;2024-01-10T08:52:01;3.93;;;3.73;;
6033;SDS011;3045;43.226;27.858;2024-01-10T08:54:28;4.37;;;3.97;;
6033;SDS011;3045;43.226;27.858;2024-01-10T08:56:55;3.93;;;3.57;;
6033;SDS011;3045;43.226;27.858;2024-01-10T08:59:23;13.87;;;4.47;;
6033;SDS011;3045;43.226;27.858;2024-01-10T09:01:52;10.30;;;4.03;;
6033;SDS011;3045;43.226;27.858;2024-01-10T09:04:19;3.70;;;3.50;;
6033;SDS011;3045;43.226;27.858;2024-01-10T09:06:46;4.43;;;4.23;;
6033;SDS011;3045;43.226;27.858;2024-01-10T09:09:13;4.27;;;4.03;;
6033;SDS011;3045;43.226;27.858;2024-01-10T09:11:41;8.20;;;5.10;;
6033;SDS011;3045;43.226;27.858;2024-01-10T09:14:08;5.17;;;4.97;;
6033;SDS011;3045;43.226;27.858;2024-01-10T09:16:35;5.20;;;4.67;;
6033;SDS011;3045;43.226;27.858;2024-01-10T09:19:05;6.47;;;4.57;;
6033;SDS011;3045;43.226;27.858;2024-01-10T09:21:32;4.43;;;4.20;;
6033;SDS011;3045;43.226;27.858;2024-01-10T09:24:00;4.83;;;4.53;;
6033;SDS011;3045;43.226;27.858;2024-01-10T09:26:30;4.70;;;4.50;;
6033;SDS011;3045;43.226;27.858;2024-01-10T09:28:57;4.67;;;4.37;;
6033;SDS011;3045;43.226;27.858;2024-01-10T09:31:24;5.07;;;4.87;;
6033;SDS011;3045;43.226;27.858;2024-01-10T09:33:51;11.40;;;4.83;;
6033;SDS011;3045;43.226;27.858;2024-01-10T09:36:20;5.90;;;5.40;;
6033;SDS011;3045;43.226;27.858;2024-01-10T09:38:47;5.70;;;5.20;;
6033;SDS011;3045;43.226;27.858;2024-01-10T09:41:14;10.47;;;5.50;;
6033;SDS011;3045;43.226;27.858;2024-01-10T09:43:42;6.10;;;5.80;;
6033;SDS011;3045;43.226;27.858;2024-01-10T09:46:09;5.80;;;5.50;;
6033;SDS011;3045;43.226;27.858;2024-01-10T09:48:36;5.57;;;5.27;;
6033;SDS011;3045;43.226;27.858;2024-01-10T09:51:04;9.23;;;5.40;;
6033;SDS011;3045;43.226;27.858;2024-01-10T09:53:33;6.20;;;5.90;;
6033;SDS011;3045;43.226;27.858;2024-01-10T09:56:03;5.87;;;5.63;;
6033;SDS011;3045;43.226;27.858;2024-01-10T09:58:31;6.37;;;6.00;;
6033;SDS011;3045;43.226;27.858;2024-01-10T10:01:04;6.83;;;6.33;;
6033;SDS011;3045;43.226;27.858;2024-01-10T10:03:32;8.27;;;5.63;;
6033;SDS011;3045;43.226;27.858;2024-01-10T10:06:04;6.57;;;6.17;;
6033;SDS011;3045;43.226;27.858;2024-01-10T10:08:33;6.93;;;6.40;;
6033;SDS011;3045;43.226;27.858;2024-01-10T10:11:00;6.60;;;6.10;;
6033;SDS011;3045;43.226;27.858;2024-01-10T10:13:28;6.10;;;5.60;;
6033;SDS011;3045;43.226;27.858;2024-01-10T10:15:59;6.47;;;6.03;;
6033;SDS011;3045;43.226;27.858;2024-01-10T10:18:26;6.00;;;5.60;;
6033;SDS011;3045;43.226;27.858;2024-01-10T10:21:06;6.80;;;6.30;;
6033;SDS011;3045;43.226;27.858;2024-01-10T10:23:36;7.17;;;6.57;;
6033;SDS011;3045;43.226;27.858;2024-01-10T10:26:11;8.13;;;7.55;;
6033;SDS011;3045;43.226;27.858;2024-01-10T10:28:44;11.20;;;10.40;;
6033;SDS011;3045;43.226;27.858;2024-01-10T10:31:12;9.80;;;8.67;;
6033;SDS011;3045;43.226;27.858;2024-01-10T10:33:40;9.17;;;8.40;;
6033;SDS011;3045;43.226;27.858;2024-01-10T10:36:07;7.90;;;7.40;;
6033;SDS011;3045;43.226;27.858;2024-01-10T10:38:34;7.13;;;6.73;;
6033;SDS011;3045;43.226;27.858;2024-01-10T10:41:03;15.87;;;7.90;;
6033;SDS011;3045;43.226;27.858;2024-01-10T10:43:33;6.10;;;5.80;;
6033;SDS011;3045;43.226;27.858;2024-01-10T10:46:02;8.47;;;6.27;;
6033;SDS011;3045;43.226;27.858;2024-01-10T10:48:32;6.57;;;6.07;;
6033;SDS011;3045;43.226;27.858;2024-01-10T10:51:03;6.90;;;6.30;;
6033;SDS011;3045;43.226;27.858;2024-01-10T10:53:33;6.50;;;6.20;;
6033;SDS011;3045;43.226;27.858;2024-01-10T10:56:03;6.30;;;6.00;;
6033;SDS011;3045;43.226;27.858;2024-01-10T10:58:33;7.20;;;6.80;;
6033;SDS011;3045;43.226;27.858;2024-01-10T11:01:02;7.07;;;6.57;;
6033;SDS011;3045;43.226;27.858;2024-01-10T11:03:33;7.83;;;7.20;;
6033;SDS011;3045;43.226;27.858;2024-01-10T11:06:02;6.83;;;6.43;;
6033;SDS011;3045;43.226;27.858;2024-01-10T11:08:32;9.83;;;7.43;;
6033;SDS011;3045;43.226;27.858;2024-01-10T11:11:04;7.50;;;6.90;;
6033;SDS011;3045;43.226;27.858;2024-01-10T11:13:38;7.40;;;6.10;;
6033;SDS011;3045;43.226;27.858;2024-01-10T11:16:34;6.87;;;6.37;;
6033;SDS011;3045;43.226;27.858;2024-01-10T11:19:26;7.37;;;6.20;;
6033;SDS011;3045;43.226;27.858;2024-01-10T11:22:16;7.13;;;6.70;;
6033;SDS011;3045;43.226;27.858;2024-01-10T11:24:55;6.67;;;6.30;;
6033;SDS011;3045;43.226;27.858;2024-01-10T11:27:23;7.70;;;7.07;;
6033;SDS011;3045;43.226;27.858;2024-01-10T11:29:53;8.60;;;7.80;;
6033;SDS011;3045;43.226;27.858;2024-01-10T11:32:22;7.40;;;6.70;;
6033;SDS011;3045;43.226;27.858;2024-01-10T11:34:51;7.37;;;6.80;;
6033;SDS011;3045;43.226;27.858;2024-01-10T11:37:21;6.90;;;6.57;;
6033;SDS011;3045;43.226;27.858;2024-01-10T11:39:50;6.80;;;6.30;;
6033;SDS011;3045;43.226;27.858;2024-01-10T11:42:21;7.07;;;6.67;;
6033;SDS011;3045;43.226;27.858;2024-01-10T11:45:07;6.17;;;5.87;;
6033;SDS011;3045;43.226;27.858;2024-01-10T11:47:34;10.80;;;6.67;;
6033;SDS011;3045;43.226;27.858;2024-01-10T11:50:06;7.03;;;6.53;;
6033;SDS011;3045;43.226;27.858;2024-01-10T11:52:36;13.30;;;6.60;;
6033;SDS011;3045;43.226;27.858;2024-01-10T11:55:04;7.07;;;6.13;;
6033;SDS011;3045;43.226;27.858;2024-01-10T11:57:38;6.60;;;6.20;;
6033;SDS011;3045;43.226;27.858;2024-01-10T12:00:06;6.30;;;5.90;;
6033;SDS011;3045;43.226;27.858;2024-01-10T12:02:34;7.60;;;7.00;;
6033;SDS011;3045;43.226;27.858;2024-01-10T12:05:02;7.37;;;5.80;;
6033;SDS011;3045;43.226;27.858;2024-01-10T12:07:29;5.60;;;5.30;;
6033;SDS011;3045;43.226;27.858;2024-01-10T12:09:56;7.17;;;5.20;;
6033;SDS011;3045;43.226;27.858;2024-01-10T12:12:23;24.33;;;16.13;;
6033;SDS011;3045;43.226;27.858;2024-01-10T12:14:52;5.87;;;5.47;;
6033;SDS011;3045;43.226;27.858;2024-01-10T12:17:19;7.13;;;5.87;;
6033;SDS011;3045;43.226;27.858;2024-01-10T12:19:46;5.90;;;5.43;;
6033;SDS011;3045;43.226;27.858;2024-01-10T12:22:13;5.67;;;5.20;;
6033;SDS011;3045;43.226;27.858;2024-01-10T12:24:42;5.47;;;4.97;;
6033;SDS011;3045;43.226;27.858;2024-01-10T12:27:10;7.67;;;6.00;;
6033;SDS011;3045;43.226;27.858;2024-01-10T12:29:37;5.23;;;4.93;;
6033;SDS011;3045;43.226;27.858;2024-01-10T12:32:06;15.33;;;6.27;;
6033;SDS011;3045;43.226;27.858;2024-01-10T12:34:37;6.80;;;6.30;;
6033;SDS011;3045;43.226;27.858;2024-01-10T12:37:05;5.43;;;4.93;;
6033;SDS011;3045;43.226;27.858;2024-01-10T12:39:32;5.87;;;5.40;;
6033;SDS011;3045;43.226;27.858;2024-01-10T12:42:00;6.43;;;5.83;;
6033;SDS011;3045;43.226;27.858;2024-01-10T12:44:28;7.83;;;6.10;;
6033;SDS011;3045;43.226;27.858;2024-01-10T12:46:56;5.70;;;5.30;;
6033;SDS011;3045;43.226;27.858;2024-01-10T12:49:26;7.73;;;7.10;;
6033;SDS011;3045;43.226;27.858;2024-01-10T12:51:53;11.50;;;6.70;;
6033;SDS011;3045;43.226;27.858;2024-01-10T12:54:21;28.17;;;7.30;;
6033;SDS011;3045;43.226;27.858;2024-01-10T12:56:48;6.73;;;6.33;;
6033;SDS011;3045;43.226;27.858;2024-01-10T12:59:16;11.07;;;6.37;;
6033;SDS011;3045;43.226;27.858;2024-01-10T13:01:43;11.47;;;5.73;;
6033;SDS011;3045;43.226;27.858;2024-01-10T13:04:10;6.13;;;5.80;;
6033;SDS011;3045;43.226;27.858;2024-01-10T13:06:39;12.00;;;6.60;;
6033;SDS011;3045;43.226;27.858;2024-01-10T13:09:06;6.90;;;6.30;;
6033;SDS011;3045;43.226;27.858;2024-01-10T13:11:34;6.57;;;6.07;;
6033;SDS011;3045;43.226;27.858;2024-01-10T13:14:01;6.77;;;6.37;;
6033;SDS011;3045;43.226;27.858;2024-01-10T13:16:28;6.83;;;6.27;;
6033;SDS011;3045;43.226;27.858;2024-01-10T13:18:56;7.20;;;6.77;;
6033;SDS011;3045;43.226;27.858;2024-01-10T13:21:24;7.50;;;7.00;;
6033;SDS011;3045;43.226;27.858;2024-01-10T13:23:53;7.83;;;7.07;;
6033;SDS011;3045;43.226;27.858;2024-01-10T13:26:20;7.03;;;6.53;;
6033;SDS011;3045;43.226;27.858;2024-01-10T13:28:47;9.77;;;7.77;;
6033;SDS011;3045;43.226;27.858;2024-01-10T13:31:14;11.23;;;7.03;;
6033;SDS011;3045;43.226;27.858;2024-01-10T13:33:41;7.50;;;6.87;;
6033;SDS011;3045;43.226;27.858;2024-01-10T13:36:08;7.67;;;7.10;;
6033;SDS011;3045;43.226;27.858;2024-01-10T13:38:35;7.93;;;7.23;;
6033;SDS011;3045;43.226;27.858;2024-01-10T13:41:04;8.10;;;6.97;;
6033;SDS011;3045;43.226;27.858;2024-01-10T13:43:31;8.67;;;7.57;;
6033;SDS011;3045;43.226;27.858;2024-01-10T13:45:58;10.47;;;7.90;;
6033;SDS011;3045;43.226;27.858;2024-01-10T13:48:26;8.40;;;7.70;;
6033;SDS011;3045;43.226;27.858;2024-01-10T13:50:53;7.80;;;7.17;;
6033;SDS011;3045;43.226;27.858;2024-01-10T13:53:20;8.00;;;7.47;;
6033;SDS011;3045;43.226;27.858;2024-01-10T13:55:48;8.73;;;7.67;;
6033;SDS011;3045;43.226;27.858;2024-01-10T13:58:16;14.80;;;8.33;;
6033;SDS011;3045;43.226;27.858;2024-01-10T14:00:44;7.60;;;7.00;;
6033;SDS011;3045;43.226;27.858;2024-01-10T14:03:12;8.50;;;7.80;;
6033;SDS011;3045;43.226;27.858;2024-01-10T14:05:39;9.17;;;8.23;;
6033;SDS011;3045;43.226;27.858;2024-01-10T14:08:06;9.23;;;8.53;;
6033;SDS011;3045;43.226;27.858;2024-01-10T14:10:33;9.20;;;8.43;;
6033;SDS011;3045;43.226;27.858;2024-01-10T14:13:00;8.80;;;7.90;;
6033;SDS011;3045;43.226;27.858;2024-01-10T14:15:30;8.40;;;7.80;;
6033;SDS011;3045;43.226;27.858;2024-01-10T14:17:57;9.00;;;8.30;;
6033;SDS011;3045;43.226;27.858;2024-01-10T14:20:24;8.93;;;8.23;;
6033;SDS011;3045;43.226;27.858;2024-01-10T14:22:51;13.23;;;9.17;;
6033;SDS011;3045;43.226;27.858;2024-01-10T14:25:18;10.70;;;9.57;;
6033;SDS011;3045;43.226;27.858;2024-01-10T14:27:46;9.67;;;8.83;;
6033;SDS011;3045;43.226;27.858;2024-01-10T14:30:13;9.27;;;8.47;;
6033;SDS011;3045;43.226;27.858;2024-01-10T14:32:42;9.27;;;8.67;;
6033;SDS011;3045;43.226;27.858;2024-01-10T14:35:12;8.77;;;8.17;;
6033;SDS011;3045;43.226;27.858;2024-01-10T14:37:40;11.70;;;9.63;;
6033;SDS011;3045;43.226;27.858;2024-01-10T14:40:07;10.33;;;9.33;;
6033;SDS011;3045;43.226;27.858;2024-01-10T14:42:36;9.47;;;8.67;;
6033;SDS011;3045;43.226;27.858;2024-01-10T14:45:03;12.33;;;9.03;;
6033;SDS011;3045;43.226;27.858;2024-01-10T14:47:31;11.30;;;8.53;;
6033;SDS011;3045;43.226;27.858;2024-01-10T14:49:59;10.93;;;9.10;;
6033;SDS011;3045;43.226;27.858;2024-01-10T14:52:26;9.40;;;8.63;;
6033;SDS011;3045;43.226;27.858;2024-01-10T14:54:54;10.23;;;9.20;;
6033;SDS011;3045;43.226;27.858;2024-01-10T14:57:21;9.03;;;8.23;;
6033;SDS011;3045;43.226;27.858;2024-01-10T14:59:48;13.67;;;9.07;;
6033;SDS011;3045;43.226;27.858;2024-01-10T15:02:15;12.90;;;9.10;;
6033;SDS011;3045;43.226;27.858;2024-01-10T15:04:44;22.03;;;9.67;;